createdAt,value
2022-11-21T00:01:21.495Z,0.50
2022-11-21T00:03:48.550Z,0.50
2022-11-21T00:06:15.693Z,0.50
2022-11-21T00:08:45.232Z,0.60
2022-11-21T00:11:12.345Z,0.50
2022-11-21T00:13:39.085Z,0.60
2022-11-21T00:16:06.458Z,0.60
2022-11-21T00:18:34.533Z,0.60
2022-11-21T00:21:27.233Z,0.60
2022-11-21T00:23:56.540Z,0.60
2022-11-21T00:26:23.194Z,0.60
2022-11-21T00:28:52.300Z,0.60
2022-11-21T00:31:20.152Z,0.60
2022-11-21T00:33:47.614Z,0.60
2022-11-21T00:36:14.499Z,0.60
2022-11-21T00:38:45.684Z,0.60
2022-11-21T00:41:12.471Z,0.50
2022-11-21T00:43:39.192Z,0.60
2022-11-21T00:46:07.977Z,0.60
2022-11-21T00:48:37.023Z,0.60
2022-11-21T00:51:06.035Z,0.60
2022-11-21T00:53:35.515Z,0.60
2022-11-21T00:56:02.240Z,0.70
2022-11-21T00:58:29.072Z,0.60
2022-11-21T01:01:02.666Z,0.60
2022-11-21T01:03:29.563Z,0.60
2022-11-21T01:06:00.199Z,0.70
2022-11-21T01:08:26.898Z,0.70
2022-11-21T01:10:56.053Z,0.70
2022-11-21T01:13:22.911Z,0.70
2022-11-21T01:15:49.665Z,0.70
2022-11-21T01:18:16.378Z,0.70
2022-11-21T01:20:45.545Z,0.70
2022-11-21T01:23:16.720Z,0.70
2022-11-21T01:25:43.422Z,0.80
2022-11-21T01:28:10.115Z,0.80
2022-11-21T01:30:39.208Z,0.80
2022-11-21T01:33:06.024Z,0.80
2022-11-21T01:35:32.739Z,0.80
2022-11-21T01:37:59.442Z,0.70
2022-11-21T01:40:26.146Z,0.70
2022-11-21T01:42:52.977Z,0.70
2022-11-21T01:45:38.783Z,0.70
2022-11-21T01:48:05.727Z,0.80
2022-11-21T01:50:32.437Z,0.80
2022-11-21T01:52:59.223Z,0.70
2022-11-21T01:55:25.930Z,0.70
2022-11-21T01:57:52.701Z,0.70
2022-11-21T02:00:27.733Z,0.70
2022-11-21T02:02:58.842Z,0.70
2022-11-21T02:05:28.704Z,0.80
2022-11-21T02:07:57.265Z,0.80
2022-11-21T02:10:24.540Z,0.80
2022-11-21T02:12:55.275Z,0.80
2022-11-21T02:15:24.242Z,0.80
2022-11-21T02:17:50.950Z,0.80
2022-11-21T02:20:18.833Z,0.80
2022-11-21T02:22:57.050Z,0.70
2022-11-21T02:25:30.300Z,0.80
2022-11-21T02:28:03.734Z,0.80
2022-11-21T02:30:31.695Z,0.80
2022-11-21T02:33:00.716Z,0.70
2022-11-21T02:35:27.487Z,0.70
2022-11-21T02:38:03.840Z,0.80
2022-11-21T02:40:35.103Z,0.80
2022-11-21T02:43:17.239Z,0.80
2022-11-21T02:45:44.841Z,0.80
2022-11-21T02:48:11.963Z,0.70
2022-11-21T02:50:42.634Z,0.70
2022-11-21T02:53:13.007Z,0.70
2022-11-21T02:55:39.799Z,0.70
2022-11-21T02:58:06.783Z,0.70
2022-11-21T03:00:34.628Z,0.80
2022-11-21T03:03:01.548Z,0.80
2022-11-21T03:05:28.480Z,0.80
2022-11-21T03:07:55.209Z,0.80
2022-11-21T03:10:22.039Z,0.70
2022-11-21T03:12:51.265Z,0.70
2022-11-21T03:15:17.999Z,0.70
2022-11-21T03:17:48.166Z,0.70
2022-11-21T03:20:17.192Z,0.70
2022-11-21T03:22:43.871Z,0.70
2022-11-21T03:25:10.591Z,0.80
2022-11-21T03:27:41.808Z,0.80
2022-11-21T03:30:08.796Z,0.90
2022-11-21T03:32:35.474Z,0.80
2022-11-21T03:35:02.219Z,0.90
2022-11-21T03:37:28.910Z,0.90
2022-11-21T03:39:57.990Z,0.90
2022-11-21T03:42:24.735Z,0.90
2022-11-21T03:44:51.410Z,0.90
2022-11-21T03:47:18.124Z,0.90
2022-11-21T03:49:44.897Z,0.80
2022-11-21T03:52:11.632Z,0.80
2022-11-21T03:54:40.716Z,0.80
2022-11-21T03:57:07.413Z,0.80
2022-11-21T03:59:40.821Z,0.80
2022-11-21T04:02:07.635Z,0.80
2022-11-21T04:04:36.682Z,0.80
2022-11-21T04:07:05.962Z,0.80
2022-11-21T04:09:32.684Z,0.80
2022-11-21T04:12:00.278Z,0.80
2022-11-21T04:14:29.759Z,0.80
2022-11-21T04:16:59.154Z,0.80
2022-11-21T04:19:25.830Z,0.80
2022-11-21T04:21:52.609Z,0.80
2022-11-21T04:24:19.358Z,0.80
2022-11-21T04:26:46.064Z,0.80
2022-11-21T04:29:12.761Z,0.80
2022-11-21T04:31:39.509Z,0.70
2022-11-21T04:34:06.386Z,0.70
2022-11-21T04:36:35.508Z,0.70
2022-11-21T04:39:02.373Z,0.70
2022-11-21T04:41:29.070Z,0.70
2022-11-21T04:43:55.779Z,0.70
2022-11-21T04:46:22.566Z,0.70
2022-11-21T04:48:49.341Z,0.70
2022-11-21T04:51:16.077Z,0.70
2022-11-21T04:53:45.285Z,0.80
2022-11-21T04:56:16.181Z,0.80
2022-11-21T04:58:45.801Z,0.80
2022-11-21T05:01:12.720Z,0.80
2022-11-21T05:03:39.575Z,0.80
2022-11-21T05:06:06.323Z,0.80
2022-11-21T05:08:33.213Z,0.80
2022-11-21T05:11:18.197Z,0.80
2022-11-21T05:13:44.902Z,0.90
2022-11-21T05:16:11.636Z,0.90
2022-11-21T05:18:38.372Z,0.90
2022-11-21T05:21:09.922Z,0.90
2022-11-21T05:23:36.679Z,0.90
2022-11-21T05:26:05.423Z,0.90
2022-11-21T05:28:34.614Z,0.90
2022-11-21T05:31:01.403Z,0.90
2022-11-21T05:33:28.164Z,0.90
2022-11-21T05:35:54.856Z,1.00
2022-11-21T05:38:24.021Z,1.00
2022-11-21T05:40:51.977Z,1.00
2022-11-21T05:43:37.444Z,1.00
2022-11-21T05:46:04.202Z,1.00
2022-11-21T05:48:30.928Z,1.00
2022-11-21T05:51:00.010Z,1.00
2022-11-21T05:53:26.828Z,1.00
2022-11-21T05:55:53.502Z,1.00
2022-11-21T05:58:24.767Z,1.00
2022-11-21T06:00:59.582Z,1.00
2022-11-21T06:03:33.201Z,1.00
2022-11-21T06:06:03.092Z,1.10
2022-11-21T06:08:33.191Z,1.10
2022-11-21T06:11:02.741Z,1.00
2022-11-21T06:13:29.938Z,1.00
2022-11-21T06:15:59.841Z,1.00
2022-11-21T06:18:29.516Z,1.00
2022-11-21T06:21:00.878Z,1.00
2022-11-21T06:23:30.075Z,1.10
2022-11-21T06:25:58.197Z,1.10
2022-11-21T06:28:27.877Z,1.10
2022-11-21T06:30:54.620Z,1.10
2022-11-21T06:33:23.514Z,1.10
2022-11-21T06:35:52.682Z,1.10
2022-11-21T06:38:19.765Z,1.10
2022-11-21T06:40:46.718Z,1.20
2022-11-21T06:43:15.721Z,1.10
2022-11-21T06:45:42.437Z,1.20
2022-11-21T06:48:11.714Z,1.20
2022-11-21T06:50:41.062Z,1.20
2022-11-21T06:53:12.528Z,1.20
2022-11-21T06:55:39.236Z,1.20
2022-11-21T06:58:08.451Z,1.20
2022-11-21T07:00:37.688Z,1.20
2022-11-21T07:03:04.443Z,1.20
2022-11-21T07:05:31.494Z,1.20
2022-11-21T07:08:01.141Z,1.20
2022-11-21T07:10:28.635Z,1.20
2022-11-21T07:13:17.820Z,1.20
2022-11-21T07:15:45.408Z,1.20
2022-11-21T07:18:12.579Z,1.20
2022-11-21T07:20:39.864Z,1.20
2022-11-21T07:23:09.477Z,1.20
2022-11-21T07:25:37.011Z,1.20
2022-11-21T07:28:04.014Z,1.20
2022-11-21T07:30:33.150Z,1.20
2022-11-21T07:33:00.624Z,1.20
2022-11-21T07:35:30.040Z,1.30
2022-11-21T07:37:59.228Z,1.30
2022-11-21T07:40:28.397Z,1.30
2022-11-21T07:43:00.711Z,1.30
2022-11-21T07:45:29.564Z,1.30
2022-11-21T07:48:03.495Z,1.30
2022-11-21T07:50:32.764Z,1.30
2022-11-21T07:53:06.551Z,1.30
2022-11-21T07:55:40.351Z,1.30
2022-11-21T07:58:11.710Z,1.40
2022-11-21T08:00:39.576Z,1.30
2022-11-21T08:03:06.979Z,1.40
2022-11-21T08:05:37.765Z,1.40
2022-11-21T08:08:05.679Z,1.40
2022-11-21T08:10:32.596Z,1.30
2022-11-21T08:13:03.022Z,1.30
2022-11-21T08:15:29.807Z,1.30
2022-11-21T08:17:59.029Z,1.20
2022-11-21T08:20:28.166Z,1.10
2022-11-21T08:22:54.997Z,1.20
2022-11-21T08:25:21.742Z,1.20
2022-11-21T08:27:48.473Z,1.20
2022-11-21T08:30:17.720Z,1.20
2022-11-21T08:32:46.792Z,1.20
2022-11-21T08:35:13.504Z,1.20
2022-11-21T08:37:40.229Z,1.20
2022-11-21T08:40:07.355Z,1.10
2022-11-21T08:42:34.067Z,1.10
2022-11-21T08:45:02.857Z,1.10
2022-11-21T08:47:29.693Z,1.10
2022-11-21T08:49:56.518Z,1.20
2022-11-21T08:52:23.470Z,1.20
2022-11-21T08:54:52.460Z,1.10
2022-11-21T08:57:21.908Z,1.20
2022-11-21T08:59:48.740Z,1.10
2022-11-21T09:02:15.451Z,1.10
2022-11-21T09:05:07.818Z,1.10
2022-11-21T09:07:34.665Z,1.10
2022-11-21T09:10:03.972Z,1.00
2022-11-21T09:12:30.998Z,1.00
2022-11-21T09:15:18.719Z,1.00
2022-11-21T09:18:03.802Z,1.00
2022-11-21T09:20:31.536Z,1.00
2022-11-21T09:23:00.681Z,1.00
2022-11-21T09:25:27.426Z,1.00
2022-11-21T09:27:54.308Z,1.00
2022-11-21T09:30:21.198Z,0.90
2022-11-21T09:36:41.385Z,0.90
2022-11-21T09:39:10.522Z,0.90
2022-11-21T09:41:52.945Z,0.90
2022-11-21T09:44:22.703Z,0.90
2022-11-21T09:46:51.302Z,0.90
2022-11-21T09:49:18.189Z,0.90
2022-11-21T09:51:46.218Z,0.90
2022-11-21T09:54:23.377Z,0.90
2022-11-21T09:57:08.310Z,0.90
2022-11-21T09:59:38.817Z,0.90
2022-11-21T10:02:16.737Z,0.80
2022-11-21T10:04:43.901Z,0.80
2022-11-21T10:07:27.745Z,0.80
2022-11-21T10:10:09.675Z,0.80
2022-11-21T10:12:46.216Z,0.70
2022-11-21T10:15:21.858Z,0.70
2022-11-21T10:17:54.992Z,0.70
2022-11-21T10:20:37.159Z,0.70
2022-11-21T10:23:12.814Z,0.70
2022-11-21T10:25:39.691Z,0.70
2022-11-21T10:28:15.482Z,0.70
2022-11-21T10:30:43.957Z,0.70
2022-11-21T10:33:29.561Z,0.70
2022-11-21T10:35:59.153Z,0.70
2022-11-21T10:38:27.110Z,0.70
2022-11-21T10:41:15.000Z,0.70
2022-11-21T10:44:06.534Z,0.70
2022-11-21T10:46:33.278Z,0.80
2022-11-21T10:49:03.431Z,0.80
2022-11-21T10:51:52.946Z,0.80
2022-11-21T10:54:35.181Z,0.90
2022-11-21T10:57:10.318Z,0.80
2022-11-21T10:59:37.039Z,0.80
2022-11-21T11:02:15.470Z,0.70
2022-11-21T11:04:50.845Z,0.70
2022-11-21T11:07:26.957Z,0.70
2022-11-21T11:10:13.764Z,0.70
2022-11-21T11:13:01.632Z,0.70
2022-11-21T11:15:28.957Z,0.80
2022-11-21T11:18:09.136Z,0.80
2022-11-21T11:20:37.971Z,0.80
2022-11-21T11:23:19.779Z,0.80
2022-11-21T11:25:54.472Z,0.80
2022-11-21T11:28:21.607Z,0.80
2022-11-21T11:30:49.172Z,0.90
2022-11-21T11:33:31.337Z,0.80
2022-11-21T11:36:09.088Z,0.90
2022-11-21T11:38:35.913Z,0.80
2022-11-21T11:41:08.922Z,0.90
2022-11-21T11:43:57.389Z,0.90
2022-11-21T11:46:33.214Z,0.90
2022-11-21T11:53:01.484Z,0.90
2022-11-21T11:55:28.154Z,0.90
2022-11-21T11:57:56.727Z,0.90
2022-11-21T12:00:26.674Z,0.80
2022-11-21T12:03:16.645Z,0.90
2022-11-21T12:05:50.448Z,0.90
2022-11-21T12:11:34.935Z,0.90
2022-11-21T12:14:36.450Z,0.90
2022-11-21T12:17:05.146Z,0.90
2022-11-21T12:19:33.211Z,0.90
2022-11-21T12:21:59.909Z,0.90
2022-11-21T12:24:29.139Z,0.90
2022-11-21T12:27:01.016Z,0.90
2022-11-21T12:29:30.868Z,0.90
2022-11-21T12:32:16.736Z,0.90
2022-11-21T12:34:52.863Z,0.90
2022-11-21T12:37:38.169Z,0.90
2022-11-21T12:40:26.188Z,1.00
2022-11-21T12:43:02.158Z,1.00
2022-11-21T12:45:41.007Z,1.00
2022-11-21T12:49:04.946Z,1.00
2022-11-21T12:51:50.270Z,0.90
2022-11-21T12:54:33.343Z,1.00
2022-11-21T12:57:10.597Z,1.00
2022-11-21T12:59:40.376Z,1.00
2022-11-21T13:02:16.110Z,1.00
2022-11-21T13:04:43.946Z,1.00
2022-11-21T13:07:11.360Z,1.00
2022-11-21T13:09:46.528Z,1.10
2022-11-21T13:12:22.360Z,1.10
2022-11-21T13:14:52.191Z,1.10
2022-11-21T13:17:24.752Z,1.10
2022-11-21T13:19:57.691Z,1.10
2022-11-21T13:22:36.729Z,1.10
2022-11-21T13:25:08.847Z,1.10
2022-11-21T13:27:38.929Z,1.10
2022-11-21T13:30:11.495Z,1.10
2022-11-21T13:32:44.647Z,1.00
2022-11-21T13:35:14.951Z,1.10
2022-11-21T13:38:01.922Z,1.10
2022-11-21T13:40:29.975Z,1.10
2022-11-21T13:43:32.201Z,1.10
2022-11-21T13:45:58.812Z,1.10
2022-11-21T13:48:31.196Z,1.10
2022-11-21T13:51:10.167Z,1.10
2022-11-21T13:53:58.619Z,1.00
2022-11-21T13:56:44.575Z,1.10
2022-11-21T13:59:23.073Z,1.10
2022-11-21T14:02:10.502Z,1.00
2022-11-21T14:04:43.585Z,1.10
2022-11-21T14:07:36.963Z,1.10
2022-11-21T14:10:19.227Z,1.10
2022-11-21T14:12:51.426Z,1.10
2022-11-21T14:15:23.888Z,1.10
2022-11-21T14:17:53.225Z,1.10
2022-11-21T14:20:22.517Z,1.10
2022-11-21T14:26:51.009Z,1.10
2022-11-21T14:29:27.348Z,1.00
2022-11-21T14:31:56.947Z,1.00
2022-11-21T14:34:24.882Z,1.00
2022-11-21T14:36:51.975Z,1.00
2022-11-21T14:39:36.848Z,1.00
2022-11-21T14:42:07.025Z,1.00
2022-11-21T14:44:34.432Z,1.00
2022-11-21T14:47:25.032Z,1.00
2022-11-21T14:49:53.246Z,1.00
2022-11-21T14:52:33.141Z,1.00
2022-11-21T14:55:29.884Z,1.00
2022-11-21T14:57:47.665Z,1.00
2022-11-21T15:00:36.250Z,0.90
2022-11-21T15:03:03.340Z,0.90
2022-11-21T15:05:55.023Z,0.90
2022-11-21T15:08:46.663Z,0.90
2022-11-21T15:11:09.361Z,1.00
2022-11-21T15:14:06.486Z,0.90
2022-11-21T15:16:29.944Z,0.90
2022-11-21T15:19:01.514Z,0.90
2022-11-21T15:21:28.298Z,0.90
2022-11-21T15:23:55.345Z,0.90
2022-11-21T15:26:27.825Z,0.90
2022-11-21T15:28:55.768Z,0.90
2022-11-21T15:31:23.545Z,0.90
2022-11-21T15:34:19.230Z,0.90
2022-11-21T15:36:40.859Z,0.90
2022-11-21T15:39:17.171Z,0.90
2022-11-21T15:41:44.117Z,0.90
2022-11-21T15:44:13.246Z,0.90
2022-11-21T15:46:47.149Z,0.90
2022-11-21T15:49:33.824Z,0.90
2022-11-21T15:54:48.285Z,0.90
2022-11-21T15:57:13.577Z,0.80
2022-11-21T15:57:17.117Z,0.90
2022-11-21T15:59:49.868Z,0.90
2022-11-21T16:02:18.928Z,0.90
2022-11-21T16:04:45.706Z,0.90
2022-11-21T16:07:14.656Z,0.90
2022-11-21T16:09:43.103Z,0.90
2022-11-21T16:12:12.293Z,0.90
2022-11-21T16:14:41.254Z,0.90
2022-11-21T16:17:10.540Z,0.90
2022-11-21T16:19:37.293Z,0.90
2022-11-21T16:22:03.999Z,0.90
2022-11-21T16:24:30.775Z,0.90
2022-11-21T16:26:57.604Z,0.90
2022-11-21T16:29:24.303Z,0.90
2022-11-21T16:31:55.817Z,0.80
2022-11-21T16:34:22.714Z,0.80
2022-11-21T16:36:50.682Z,0.80
2022-11-21T16:39:18.661Z,0.80
2022-11-21T16:41:46.618Z,0.80
2022-11-21T16:44:14.643Z,0.70
2022-11-21T16:46:42.313Z,0.70
2022-11-21T16:49:09.574Z,0.70
2022-11-21T16:51:38.704Z,0.80
2022-11-21T16:54:10.453Z,0.70
2022-11-21T16:56:37.357Z,0.70
2022-11-21T16:59:04.108Z,0.70
2022-11-21T17:01:31.058Z,0.70
2022-11-21T17:03:57.992Z,0.70
2022-11-21T17:06:28.086Z,0.70
2022-11-21T17:08:54.846Z,0.70
2022-11-21T17:11:22.543Z,0.70
2022-11-21T17:13:51.722Z,0.60
2022-11-21T17:16:21.817Z,0.60
2022-11-21T17:18:56.861Z,0.60
2022-11-21T17:21:23.643Z,0.60
2022-11-21T17:23:52.917Z,0.60
2022-11-21T17:26:24.958Z,0.60
2022-11-21T17:28:55.850Z,0.60
2022-11-21T17:31:22.670Z,0.50
2022-11-21T17:33:52.377Z,0.50
2022-11-21T17:36:25.238Z,0.50
2022-11-21T17:38:54.696Z,0.50
2022-11-21T17:41:22.262Z,0.40
2022-11-21T17:43:49.048Z,0.40
2022-11-21T17:46:17.389Z,0.40
2022-11-21T17:48:51.456Z,0.40
2022-11-21T17:51:22.694Z,0.40
2022-11-21T17:53:50.156Z,0.40
2022-11-21T17:56:19.903Z,0.40
2022-11-21T17:58:47.198Z,0.50
2022-11-21T18:01:19.349Z,0.40
2022-11-21T18:03:47.420Z,0.40
2022-11-21T18:06:17.691Z,0.40
2022-11-21T18:08:45.615Z,0.40
2022-11-21T18:11:13.475Z,0.40
2022-11-21T18:13:42.544Z,0.40
2022-11-21T18:16:10.591Z,0.40
2022-11-21T18:18:37.810Z,0.50
2022-11-21T18:21:11.660Z,0.50
2022-11-21T18:23:38.460Z,0.50
2022-11-21T18:26:06.424Z,0.50
2022-11-21T18:28:35.712Z,0.60
2022-11-21T18:31:10.202Z,0.60
2022-11-21T18:33:37.529Z,0.60
2022-11-21T18:36:05.784Z,0.60
2022-11-21T18:38:48.872Z,0.60
2022-11-21T18:41:22.296Z,0.60
2022-11-21T18:43:59.347Z,0.60
2022-11-21T18:46:27.142Z,0.70
2022-11-21T18:49:02.753Z,0.60
2022-11-21T18:51:31.617Z,0.60
2022-11-21T18:54:00.001Z,0.60
2022-11-21T18:56:29.223Z,0.60
2022-11-21T18:58:59.035Z,0.60
2022-11-21T19:01:29.444Z,0.60
2022-11-21T19:03:56.728Z,0.60
2022-11-21T19:06:26.899Z,0.60
2022-11-21T19:08:54.600Z,0.60
2022-11-21T19:11:24.856Z,0.50
2022-11-21T19:13:54.465Z,0.50
2022-11-21T19:16:24.283Z,0.50
2022-11-21T19:19:25.980Z,0.60
2022-11-21T19:21:39.094Z,0.60
2022-11-21T19:24:10.615Z,0.60
2022-11-21T19:26:37.462Z,0.70
2022-11-21T19:29:04.305Z,0.70
2022-11-21T19:31:31.091Z,0.70
2022-11-21T19:34:00.429Z,0.70
2022-11-21T19:36:27.179Z,0.70
2022-11-21T19:38:53.981Z,0.70
2022-11-21T19:41:22.083Z,0.70
2022-11-21T19:43:49.874Z,0.70
2022-11-21T19:46:18.708Z,0.70
2022-11-21T19:48:51.402Z,0.70
2022-11-21T19:51:18.751Z,0.70
2022-11-21T19:53:50.426Z,0.70
2022-11-21T19:56:24.125Z,0.70
2022-11-21T19:58:51.466Z,0.70
2022-11-21T20:01:19.692Z,0.70
2022-11-21T20:03:47.745Z,0.70
2022-11-21T20:06:28.526Z,0.70
2022-11-21T20:09:05.922Z,0.70
2022-11-21T20:11:33.333Z,0.70
2022-11-21T20:14:00.204Z,0.80
2022-11-21T20:16:31.546Z,0.80
2022-11-21T20:18:59.518Z,0.80
2022-11-21T20:21:32.614Z,0.80
2022-11-21T20:24:01.925Z,0.80
2022-11-21T20:30:25.008Z,0.80
2022-11-21T20:32:57.460Z,0.80
2022-11-21T20:35:24.222Z,0.80
2022-11-21T20:37:51.038Z,0.90
2022-11-21T20:40:17.897Z,0.80
2022-11-21T20:42:44.802Z,0.80
2022-11-21T20:46:06.398Z,0.80
2022-11-21T20:47:59.139Z,0.80
2022-11-21T20:51:10.991Z,0.80
2022-11-21T20:56:05.588Z,0.80
2022-11-21T20:58:33.481Z,0.80
2022-11-21T21:01:03.094Z,0.80
2022-11-21T21:03:30.945Z,0.90
2022-11-21T21:06:06.650Z,0.90
2022-11-21T21:08:50.217Z,0.90
2022-11-21T21:11:49.692Z,0.90
2022-11-21T21:14:08.376Z,0.80
2022-11-21T21:16:37.555Z,0.80
2022-11-21T21:19:08.612Z,0.80
2022-11-21T21:21:37.120Z,0.80
2022-11-21T21:24:07.026Z,0.80
2022-11-21T21:30:06.354Z,0.90
2022-11-21T21:32:33.457Z,0.80
2022-11-21T21:35:00.979Z,0.80
2022-11-21T21:37:30.115Z,0.80
2022-11-21T21:39:58.932Z,0.80
2022-11-21T21:42:25.854Z,0.90
2022-11-21T21:44:52.714Z,0.90
2022-11-21T21:47:21.283Z,0.90
2022-11-21T21:49:48.468Z,0.90
2022-11-21T21:52:15.633Z,0.90
2022-11-21T21:54:42.424Z,0.90
2022-11-21T21:57:09.269Z,0.90
2022-11-21T21:59:36.402Z,0.90
2022-11-21T22:02:03.324Z,0.90
2022-11-21T22:04:32.147Z,0.90
2022-11-21T22:07:00.212Z,0.90
2022-11-21T22:09:27.090Z,0.90
2022-11-21T22:11:54.120Z,0.90
2022-11-21T22:14:20.917Z,0.90
2022-11-21T22:16:47.754Z,0.80
2022-11-21T22:19:15.448Z,0.80
2022-11-21T22:21:42.307Z,0.80
2022-11-21T22:24:31.322Z,0.80
2022-11-21T22:26:58.237Z,0.80
2022-11-21T22:29:34.473Z,0.70
2022-11-21T22:32:05.574Z,0.70
2022-11-21T22:34:34.511Z,0.70
2022-11-21T22:37:01.247Z,0.70
2022-11-21T22:39:28.066Z,0.70
2022-11-21T22:41:59.733Z,0.70
2022-11-21T22:44:27.058Z,0.70
2022-11-21T22:46:56.252Z,0.70
2022-11-21T22:49:23.140Z,0.70
2022-11-21T22:51:49.901Z,0.70
2022-11-21T22:54:18.909Z,0.70
2022-11-21T22:56:45.849Z,0.60
2022-11-21T22:59:13.772Z,0.60
2022-11-21T23:01:40.586Z,0.60
2022-11-21T23:04:07.369Z,0.50
2022-11-21T23:06:34.089Z,0.50
2022-11-21T23:09:00.781Z,0.40
2022-11-21T23:11:28.887Z,0.40
2022-11-21T23:13:56.189Z,0.40
2022-11-21T23:16:23.030Z,0.30
2022-11-21T23:18:51.713Z,0.30
2022-11-21T23:21:18.539Z,0.30
2022-11-21T23:23:47.849Z,0.30
2022-11-21T23:26:14.682Z,0.30
2022-11-21T23:28:47.273Z,0.30
2022-11-21T23:31:14.250Z,0.30
2022-11-21T23:33:40.996Z,0.30
2022-11-21T23:36:07.745Z,0.30
2022-11-21T23:38:34.709Z,0.30
2022-11-21T23:41:01.421Z,0.30
2022-11-21T23:43:30.655Z,0.30
2022-11-21T23:45:57.377Z,0.40
2022-11-21T23:48:27.289Z,0.30
2022-11-21T23:50:54.229Z,0.20
2022-11-21T23:53:21.503Z,0.30
2022-11-21T23:55:50.598Z,0.30
2022-11-21T23:58:17.389Z,0.30
